Airport View

Enter AWOS ICAO identifier for current METAR.

ex. KFNL

KHLX 080355Z AUTO 00000KT 10SM CLR 20/19 A3012 RMK AO2 T02000192

8 Jul 2020 03:57

Frequency: 118.375

Phone: 276-728-5897

Other Area AWOS: KMWK - KPSK - KMKJ - KBCB

TAF KBCB 072320Z 0800/0824 15005KT P6SM SCT045 FM080800 00000KT 4SM BR BKN025 TEMPO 0809/0812 2SM BR BKN012 FM081300 00000KT P6SM BKN013 FM081500 11004KT P6SM BKN035